Time;durP1;ratioP1;P1;durP2;ratioP2;P2;SDS_P1;SDS_P2;PMS_P1;PMS_P2;Temp;Humidity;BMP_temperature;BMP_pressure;BME280_temperature;BME280_humidity;BME280_pressure;Samples;Min_cycle;Max_cycle;Signal;HPM_P1;HPM_P2
2021/11/15 00:01:52;;;;;;;39.50;17.90;;;;;;;9.06;83.25;102781.75;5052948;28;20052;-69
2021/11/15 00:04:19;;;;;;;34.70;17.02;;;;;;;9.14;83.50;102781.91;5052955;28;20078;-69
2021/11/15 00:06:45;;;;;;;36.42;16.27;;;;;;;9.12;82.69;102773.50;5052975;28;20567;-69
2021/11/15 00:09:11;;;;;;;35.15;16.75;;;;;;;9.16;82.53;102769.72;5035055;28;20017;-69
2021/11/15 00:11:37;;;;;;;35.95;16.60;;;;;;;9.12;82.76;102774.34;5034895;28;20411;-69
2021/11/15 00:14:03;;;;;;;32.60;16.10;;;;;;;9.10;82.88;102777.97;5053011;28;20036;-69
2021/11/15 00:16:29;;;;;;;37.53;17.67;;;;;;;9.14;82.79;102771.59;5052809;28;20033;-69
2021/11/15 00:18:54;;;;;;;34.33;16.20;;;;;;;9.13;82.82;102772.56;5052415;28;20033;-69
2021/11/15 00:21:20;;;;;;;40.05;15.90;;;;;;;9.14;82.48;102769.03;5052636;28;20035;-69
2021/11/15 00:23:46;;;;;;;32.65;15.80;;;;;;;9.08;81.27;102770.34;5052914;28;20056;-69
2021/11/15 00:26:11;;;;;;;28.40;14.70;;;;;;;9.02;82.27;102769.09;5052869;28;20029;-69
2021/11/15 00:28:38;;;;;;;29.40;14.98;;;;;;;8.99;81.76;102766.78;5034973;28;20024;-69
2021/11/15 00:31:04;;;;;;;30.65;14.98;;;;;;;9.09;81.75;102773.75;5052803;28;20100;-69
2021/11/15 00:33:29;;;;;;;28.77;14.60;;;;;;;9.10;80.97;102772.81;5053512;28;20460;-69
2021/11/15 00:35:55;;;;;;;29.35;13.88;;;;;;;9.06;80.72;102768.84;5056714;28;20471;-69
2021/11/15 00:38:20;;;;;;;26.73;13.30;;;;;;;8.96;80.28;102766.22;5038671;28;20079;-69
2021/11/15 00:40:46;;;;;;;26.83;14.13;;;;;;;8.95;81.21;102762.84;5056637;28;20029;-69
2021/11/15 00:43:12;;;;;;;29.13;13.65;;;;;;;8.91;80.43;102747.72;5056374;28;20025;-70
2021/11/15 00:45:38;;;;;;;27.05;13.73;;;;;;;8.93;81.03;102767.28;5056385;28;20027;-69
2021/11/15 00:48:04;;;;;;;26.67;13.30;;;;;;;8.86;80.41;102761.03;5056366;28;20028;-69
2021/11/15 00:50:30;;;;;;;26.00;13.43;;;;;;;9.00;81.50;102768.41;5056331;28;20117;-69
2021/11/15 00:52:56;;;;;;;24.50;13.02;;;;;;;9.00;80.95;102770.16;5038358;28;20112;-68
2021/11/15 00:55:22;;;;;;;24.73;12.85;;;;;;;9.03;80.75;102767.34;5056055;28;20146;-67
2021/11/15 00:57:47;;;;;;;27.73;13.25;;;;;;;8.97;80.68;102753.19;5038373;28;20024;-68
2021/11/15 01:00:19;;;;;;;27.27;13.50;;;;;;;8.98;80.69;102770.31;5056193;28;20483;-68
2021/11/15 01:02:44;;;;;;;27.73;14.02;;;;;;;8.98;81.01;102774.66;5056483;28;20025;-68
2021/11/15 01:05:10;;;;;;;25.50;13.35;;;;;;;8.92;81.04;102768.25;5056657;28;20162;-69
2021/11/15 01:07:35;;;;;;;26.45;13.60;;;;;;;8.93;80.51;102776.78;5056620;28;20037;-68
2021/11/15 01:10:02;;;;;;;25.83;13.25;;;;;;;8.86;80.39;102765.34;5056180;28;20092;-68
2021/11/15 01:12:29;;;;;;;25.67;13.40;;;;;;;8.84;80.97;102768.06;5056060;28;20087;-68
2021/11/15 01:14:54;;;;;;;27.35;13.43;;;;;;;8.94;81.23;102771.50;5056135;28;20082;-68
2021/11/15 01:17:20;;;;;;;26.67;13.50;;;;;;;9.03;80.70;102775.06;5056048;28;20025;-67
2021/11/15 01:19:45;;;;;;;23.95;13.15;;;;;;;8.98;80.31;102764.34;5055970;28;20021;-68
2021/11/15 01:22:11;;;;;;;27.98;12.88;;;;;;;8.68;81.13;102763.34;5056025;28;20078;-68
2021/11/15 01:24:36;;;;;;;26.27;13.65;;;;;;;8.69;81.58;102762.41;5055998;28;20087;-68
2021/11/15 01:27:02;;;;;;;22.98;12.60;;;;;;;8.71;80.89;102759.69;5055803;28;20033;-67
2021/11/15 01:29:27;;;;;;;23.40;12.70;;;;;;;8.69;80.12;102759.00;5055830;28;20017;-69
2021/11/15 01:31:57;;;;;;;23.70;12.40;;;;;;;8.76;81.43;102757.56;5055819;28;20027;-70
2021/11/15 01:34:24;;;;;;;22.38;12.13;;;;;;;8.59;80.88;102759.75;5037927;28;20423;-69
2021/11/15 01:36:49;;;;;;;26.48;11.98;;;;;;;8.50;81.15;102751.97;5055713;28;20021;-69
2021/11/15 01:39:14;;;;;;;23.60;11.60;;;;;;;8.65;81.47;102749.88;5055826;28;20025;-70
2021/11/15 01:41:40;;;;;;;24.02;12.57;;;;;;;8.64;81.15;102748.25;5055652;28;20381;-67
2021/11/15 01:44:05;;;;;;;21.48;11.93;;;;;;;8.70;80.68;102742.59;5055636;28;20099;-68
2021/11/15 01:46:31;;;;;;;24.25;12.25;;;;;;;8.63;81.35;102746.63;5054852;28;20112;-70
2021/11/15 01:48:56;;;;;;;24.95;12.10;;;;;;;8.88;80.98;102750.56;5037602;28;20104;-70
2021/11/15 01:51:22;;;;;;;28.88;13.10;;;;;;;8.85;81.70;102751.63;5055389;28;20186;-68
2021/11/15 01:53:47;;;;;;;28.13;13.75;;;;;;;8.88;81.90;102745.41;5055225;28;20024;-68
2021/11/15 01:56:13;;;;;;;24.45;12.90;;;;;;;8.61;82.76;102746.75;5055279;28;20108;-68
2021/11/15 01:58:39;;;;;;;31.98;13.60;;;;;;;8.70;82.93;102751.16;5055087;28;20021;-68
2021/11/15 02:01:04;;;;;;;28.85;13.38;;;;;;;8.70;83.55;102742.59;5055173;28;20047;-68
2021/11/15 02:03:30;;;;;;;28.73;13.27;;;;;;;8.64;83.20;102748.25;5055148;28;20498;-68
2021/11/15 02:05:57;;;;;;;26.40;12.90;;;;;;;8.64;83.32;102745.69;5037155;28;20021;-67
2021/11/15 02:08:22;;;;;;;27.52;12.32;;;;;;;8.61;82.44;102748.53;5054899;28;20096;-68
2021/11/15 02:10:48;;;;;;;23.38;11.50;;;;;;;8.53;82.78;102749.13;5054878;28;20514;-68
2021/11/15 02:13:15;;;;;;;22.45;11.75;;;;;;;8.52;82.14;102747.50;5054495;28;20492;-68
2021/11/15 02:15:41;;;;;;;26.30;11.93;;;;;;;8.45;81.87;102743.78;5054856;28;20078;-68
2021/11/15 02:18:07;;;;;;;22.88;11.25;;;;;;;8.64;82.42;102741.34;5054985;28;20032;-67
2021/11/15 02:20:57;;;;;;;20.33;10.57;;;;;;;8.67;81.04;102746.25;5054706;28;20029;-68
2021/11/15 02:23:24;;;;;;;23.00;11.07;;;;;;;8.63;81.26;102750.03;5040332;28;20112;-68
2021/11/15 02:25:53;;;;;;;22.65;11.00;;;;;;;8.48;81.93;102748.69;5054629;28;20024;-67
2021/11/15 02:28:28;;;;;;;21.48;11.38;;;;;;;8.54;82.17;102743.03;5036684;28;20032;-68
2021/11/15 02:30:54;;;;;;;17.40;10.40;;;;;;;8.50;82.03;102741.66;5054864;28;20483;-68
2021/11/15 02:33:20;;;;;;;19.67;10.02;;;;;;;8.49;81.98;102753.72;5054457;28;20028;-68
2021/11/15 02:35:45;;;;;;;24.77;10.40;;;;;;;8.43;80.93;102741.34;5054434;28;20028;-68
2021/11/15 02:38:11;;;;;;;19.95;9.45;;;;;;;8.41;80.88;102742.41;5054311;28;20056;-68
2021/11/15 02:40:36;;;;;;;17.75;9.57;;;;;;;8.32;81.17;102739.59;5036454;28;20375;-68
2021/11/15 02:43:02;;;;;;;18.00;9.55;;;;;;;8.22;80.48;102741.28;5054545;28;20025;-68
2021/11/15 02:45:28;;;;;;;18.52;9.43;;;;;;;8.38;80.80;102745.22;5036615;28;20451;-68
2021/11/15 02:47:54;;;;;;;16.75;9.90;;;;;;;8.38;81.24;102743.44;5037257;28;20028;-68
2021/11/15 02:50:22;;;;;;;17.73;9.52;;;;;;;8.38;81.80;102748.59;5054180;28;20045;-68
2021/11/15 02:52:51;;;;;;;17.30;8.73;;;;;;;8.47;80.70;102744.47;5036500;28;20430;-68
2021/11/15 02:55:17;;;;;;;20.13;9.30;;;;;;;8.46;80.79;102748.81;5054120;28;20052;-69
2021/11/15 02:57:42;;;;;;;16.73;9.38;;;;;;;8.36;80.91;102751.28;5053925;28;20030;-68
2021/11/15 03:00:28;;;;;;;18.27;9.45;;;;;;;8.09;81.34;102745.78;5036093;28;20355;-69
2021/11/15 03:02:57;;;;;;;17.45;9.80;;;;;;;8.15;82.10;102737.56;5053337;28;20045;-68
2021/11/15 03:05:29;;;;;;;18.95;10.20;;;;;;;8.08;82.10;102737.22;5054295;28;20021;-68
2021/11/15 03:07:56;;;;;;;18.20;10.23;;;;;;;8.22;81.80;102732.72;5035876;28;20033;-68
2021/11/15 03:10:22;;;;;;;21.45;10.48;;;;;;;8.36;81.73;102728.09;5035949;28;20294;-68
2021/11/15 03:12:49;;;;;;;19.10;10.50;;;;;;;8.22;81.61;102725.00;5053580;28;20049;-68
2021/11/15 03:15:37;;;;;;;18.98;10.20;;;;;;;8.37;81.64;102731.47;5035845;28;20053;-68
2021/11/15 03:18:08;;;;;;;16.60;9.70;;;;;;;8.04;82.26;102729.88;5053557;28;20021;-68
2021/11/15 03:20:37;;;;;;;21.65;10.75;;;;;;;8.18;82.54;102726.22;5053499;28;20482;-68
2021/11/15 03:23:09;;;;;;;18.23;10.43;;;;;;;8.10;82.49;102739.69;5053487;28;20080;-68
2021/11/15 03:25:34;;;;;;;18.85;11.13;;;;;;;8.13;82.56;102732.53;5035526;28;20056;-68
2021/11/15 03:27:59;;;;;;;18.92;10.93;;;;;;;8.31;82.03;102724.25;5053350;28;20110;-68
2021/11/15 03:30:26;;;;;;;20.73;10.55;;;;;;;8.29;81.71;102721.00;5035470;28;20063;-68
2021/11/15 03:32:52;;;;;;;20.08;10.88;;;;;;;8.24;81.92;102729.09;5035681;28;20021;-68
2021/11/15 03:35:18;;;;;;;18.27;10.63;;;;;;;8.15;81.98;102727.25;5053320;28;20360;-68
2021/11/15 03:37:45;;;;;;;21.27;10.48;;;;;;;8.27;82.67;102728.03;5053238;28;20032;-69
2021/11/15 03:40:14;;;;;;;16.73;9.95;;;;;;;8.29;81.42;102731.31;5053228;28;20029;-68
2021/11/15 03:42:42;;;;;;;17.77;10.38;;;;;;;8.33;81.77;102735.25;5054063;28;20112;-68
2021/11/15 03:45:08;;;;;;;15.93;9.23;;;;;;;8.35;81.04;102743.69;5053509;28;20025;-68
2021/11/15 03:47:33;;;;;;;18.58;9.95;;;;;;;8.31;81.66;102735.38;5053555;28;20078;-68
2021/11/15 03:49:58;;;;;;;15.85;10.00;;;;;;;8.13;82.13;102732.53;5035208;28;20021;-68
2021/11/15 03:52:24;;;;;;;17.33;9.82;;;;;;;8.21;82.00;102736.25;5053224;28;20033;-68
2021/11/15 03:54:50;;;;;;;17.92;10.45;;;;;;;8.05;81.80;102731.50;5053030;28;20029;-68
2021/11/15 03:57:15;;;;;;;21.80;10.55;;;;;;;8.02;82.66;102732.56;5053098;28;20031;-68
2021/11/15 03:59:41;;;;;;;18.20;10.50;;;;;;;8.11;82.47;102736.16;5053081;28;20375;-68
2021/11/15 04:02:07;;;;;;;22.45;10.27;;;;;;;8.11;82.63;102731.84;5053580;28;20032;-68
2021/11/15 04:04:49;;;;;;;20.13;10.60;;;;;;;8.20;82.53;102726.88;5053154;28;20032;-69
2021/11/15 04:07:15;;;;;;;18.17;10.48;;;;;;;8.14;82.32;102731.59;5053064;28;20090;-69
2021/11/15 04:09:40;;;;;;;20.17;10.85;;;;;;;8.10;82.45;102730.19;5055931;28;20071;-69
2021/11/15 04:12:06;;;;;;;21.02;11.25;;;;;;;8.05;82.62;102731.50;5038997;28;20072;-69
2021/11/15 04:14:32;;;;;;;20.00;10.85;;;;;;;7.99;82.93;102732.81;5039265;28;20087;-69
2021/11/15 04:16:58;;;;;;;19.15;11.15;;;;;;;8.12;83.05;102733.47;5039128;28;20021;-69
2021/11/15 04:19:23;;;;;;;20.95;11.68;;;;;;;8.09;82.93;102730.34;5056993;28;20029;-69
2021/11/15 04:21:51;;;;;;;22.10;11.65;;;;;;;7.86;83.62;102732.97;5056970;28;20432;-69
2021/11/15 04:24:16;;;;;;;22.83;12.50;;;;;;;7.85;82.58;102718.47;5056986;28;20031;-69
2021/11/15 04:26:42;;;;;;;19.67;11.60;;;;;;;8.00;83.29;102728.47;5056900;28;20100;-69
2021/11/15 04:29:07;;;;;;;20.45;12.05;;;;;;;8.13;82.73;102729.94;5056903;28;20032;-68
2021/11/15 04:31:32;;;;;;;21.25;11.65;;;;;;;8.17;82.23;102733.13;5056785;28;20357;-69
2021/11/15 04:33:57;;;;;;;21.13;11.73;;;;;;;8.10;82.39;102731.97;5056702;28;20027;-69
2021/11/15 04:36:23;;;;;;;18.05;11.13;;;;;;;8.02;83.35;102742.88;5056659;28;20017;-69
2021/11/15 04:38:50;;;;;;;18.40;11.35;;;;;;;8.06;83.35;102740.88;5056459;28;20025;-69
2021/11/15 04:41:15;;;;;;;18.65;11.48;;;;;;;8.11;82.12;102741.31;5038582;28;20111;-69
2021/11/15 04:43:41;;;;;;;21.00;11.60;;;;;;;7.78;83.21;102749.97;5056513;28;20021;-69
2021/11/15 04:46:06;;;;;;;21.75;12.27;;;;;;;8.05;82.73;102746.97;5038619;28;20028;-69
2021/11/15 04:48:31;;;;;;;21.25;11.77;;;;;;;8.03;82.44;102748.84;5038623;28;20020;-69
2021/11/15 04:50:57;;;;;;;22.73;12.43;;;;;;;7.90;82.87;102754.94;5038546;28;20475;-68
2021/11/15 04:53:23;;;;;;;23.08;12.75;;;;;;;7.90;83.46;102743.84;5056373;28;20028;-69
2021/11/15 04:55:48;;;;;;;22.42;12.55;;;;;;;8.04;82.85;102741.00;5056324;28;20021;-68
2021/11/15 04:58:14;;;;;;;21.10;12.77;;;;;;;7.86;82.70;102739.88;5038280;28;20025;-69
2021/11/15 05:00:39;;;;;;;21.25;12.00;;;;;;;7.77;83.04;102748.31;5038264;28;20032;-69
2021/11/15 05:03:05;;;;;;;25.02;12.80;;;;;;;7.86;83.23;102747.59;5056173;28;20099;-69
2021/11/15 05:05:30;;;;;;;21.05;12.60;;;;;;;7.80;83.33;102738.63;5056178;28;20032;-69
2021/11/15 05:07:57;;;;;;;21.50;12.98;;;;;;;8.05;82.63;102742.63;5055977;28;20029;-69
2021/11/15 05:10:24;;;;;;;23.13;12.35;;;;;;;8.14;82.29;102736.75;5056059;28;20029;-69
2021/11/15 05:12:50;;;;;;;23.45;12.88;;;;;;;8.14;83.46;102746.22;5037942;28;20146;-69
2021/11/15 05:15:19;;;;;;;25.58;12.82;;;;;;;8.11;82.72;102746.47;5038053;28;20024;-69
2021/11/15 05:17:46;;;;;;;23.90;13.13;;;;;;;8.05;83.65;102744.38;5055801;28;20028;-69
2021/11/15 05:20:12;;;;;;;22.92;12.88;;;;;;;7.88;84.05;102743.97;5054469;28;20537;-69
2021/11/15 05:22:38;;;;;;;23.45;13.57;;;;;;;7.81;83.67;102757.44;5055998;28;20025;-69
2021/11/15 05:25:05;;;;;;;21.73;13.00;;;;;;;7.99;83.40;102748.25;5055684;28;20028;-69
2021/11/15 05:27:30;;;;;;;26.02;14.00;;;;;;;8.05;82.84;102747.75;5055699;28;20083;-69
2021/11/15 05:29:56;;;;;;;23.90;13.20;;;;;;;7.97;83.12;102749.31;5055616;28;20048;-69
2021/11/15 05:32:22;;;;;;;24.60;13.50;;;;;;;7.80;83.64;102750.66;5055522;28;20021;-69
2021/11/15 05:34:47;;;;;;;25.13;13.80;;;;;;;7.69;84.46;102741.22;5037633;28;20155;-69
2021/11/15 05:37:14;;;;;;;28.88;13.68;;;;;;;7.79;83.16;102751.59;5055466;28;20036;-69
2021/11/15 05:39:41;;;;;;;25.55;13.40;;;;;;;8.01;83.27;102741.25;5055410;28;20250;-69
2021/11/15 05:42:06;;;;;;;24.08;13.27;;;;;;;8.14;82.64;102746.22;5055463;28;20036;-69
2021/11/15 05:44:31;;;;;;;23.13;13.80;;;;;;;7.97;83.15;102737.28;5055448;28;20349;-69
2021/11/15 05:46:57;;;;;;;24.35;13.15;;;;;;;7.95;82.87;102741.72;5055472;28;20017;-69
2021/11/15 05:49:22;;;;;;;25.67;13.68;;;;;;;7.98;82.66;102746.63;5055543;28;20383;-69
2021/11/15 05:51:47;;;;;;;25.65;14.00;;;;;;;7.96;82.98;102737.41;5037337;28;20539;-68
2021/11/15 05:54:13;;;;;;;23.00;13.40;;;;;;;7.95;82.69;102743.50;5055200;28;20052;-68
2021/11/15 05:56:39;;;;;;;24.85;13.95;;;;;;;7.95;83.16;102746.88;5055164;28;20032;-68
2021/11/15 05:59:04;;;;;;;28.65;13.75;;;;;;;7.89;83.62;102749.94;5054973;28;20037;-68
2021/11/15 06:01:29;;;;;;;23.70;13.77;;;;;;;8.01;82.76;102743.81;5055051;28;20029;-68
2021/11/15 06:03:55;;;;;;;21.85;13.30;;;;;;;7.99;83.31;102748.25;5037120;28;20067;-68
2021/11/15 06:06:21;;;;;;;25.92;13.98;;;;;;;7.93;83.82;102747.94;5054844;28;20033;-68
2021/11/15 06:08:46;;;;;;;26.13;13.70;;;;;;;8.07;83.67;102745.91;5054952;28;20021;-69
2021/11/15 06:11:11;;;;;;;25.05;14.05;;;;;;;8.09;83.34;102749.19;5037282;28;20020;-69
2021/11/15 06:13:37;;;;;;;27.60;13.90;;;;;;;8.14;83.15;102762.50;5054749;28;20045;-69
2021/11/15 06:16:02;;;;;;;23.27;12.75;;;;;;;8.05;83.40;102755.50;5054954;28;20127;-69
2021/11/15 06:18:28;;;;;;;24.38;13.75;;;;;;;8.13;83.07;102763.44;5055243;28;20064;-69
2021/11/15 06:20:53;;;;;;;24.00;13.45;;;;;;;8.10;83.08;102766.25;5054714;28;20464;-69
2021/11/15 06:23:19;;;;;;;24.38;12.95;;;;;;;7.84;83.98;102767.50;5054616;28;20033;-69
2021/11/15 06:25:44;;;;;;;22.30;12.77;;;;;;;7.90;83.97;102764.44;5054656;28;20035;-69
2021/11/15 06:28:10;;;;;;;27.08;13.20;;;;;;;7.79;83.52;102769.59;5054612;28;20033;-69
2021/11/15 06:30:35;;;;;;;26.55;13.63;;;;;;;7.87;83.85;102759.53;5036726;28;20471;-69
2021/11/15 06:33:01;;;;;;;23.38;12.05;;;;;;;7.81;84.17;102775.47;5054091;28;20533;-69
2021/11/15 06:35:27;;;;;;;23.00;12.60;;;;;;;7.82;83.60;102772.75;5054432;28;20399;-69
2021/11/15 06:37:53;;;;;;;22.13;12.65;;;;;;;7.87;83.28;102777.56;5054977;28;20155;-69
2021/11/15 06:40:19;;;;;;;24.05;12.77;;;;;;;7.81;83.68;102776.28;5054374;28;20043;-69
2021/11/15 06:42:46;;;;;;;23.63;11.95;;;;;;;7.75;83.71;102781.91;5054822;28;20033;-69
2021/11/15 06:45:12;;;;;;;23.40;12.90;;;;;;;7.84;83.64;102786.31;5054281;28;20052;-69
2021/11/15 06:47:38;;;;;;;25.98;12.80;;;;;;;7.72;84.39;102781.31;5036781;28;20471;-69
2021/11/15 06:50:06;;;;;;;23.73;12.90;;;;;;;7.75;83.83;102781.09;5036430;28;20035;-69
2021/11/15 06:52:32;;;;;;;24.23;13.60;;;;;;;7.70;83.90;102778.88;5054827;28;20061;-69
2021/11/15 06:54:57;;;;;;;25.20;13.13;;;;;;;7.52;84.95;102768.25;5053966;28;20067;-69
2021/11/15 06:57:24;;;;;;;30.70;13.45;;;;;;;7.73;84.75;102772.66;5054043;28;20459;-69
2021/11/15 06:59:50;;;;;;;25.55;13.40;;;;;;;7.86;84.66;102778.50;5054267;28;20417;-69
2021/11/15 07:02:15;;;;;;;25.08;13.55;;;;;;;7.97;84.38;102773.34;5053990;28;20054;-68
2021/11/15 07:04:40;;;;;;;27.58;13.25;;;;;;;7.89;83.48;102780.84;5053930;28;20025;-69
2021/11/15 07:07:06;;;;;;;26.20;13.63;;;;;;;7.79;84.28;102778.13;5054079;28;20108;-68
2021/11/15 07:09:31;;;;;;;24.38;14.00;;;;;;;7.89;84.59;102767.97;5053794;28;20529;-68
2021/11/15 07:11:57;;;;;;;24.48;13.35;;;;;;;7.64;84.82;102767.28;5053626;28;20017;-68
2021/11/15 07:14:22;;;;;;;29.05;13.80;;;;;;;7.66;84.86;102769.75;5053754;28;20375;-69
2021/11/15 07:16:47;;;;;;;24.67;13.57;;;;;;;7.75;85.05;102765.66;5053985;28;20033;-69
2021/11/15 07:19:13;;;;;;;25.98;13.70;;;;;;;7.89;84.62;102773.09;5053445;28;20464;-68
2021/11/15 07:21:38;;;;;;;25.65;13.30;;;;;;;7.99;84.20;102768.84;5053628;28;20032;-69
2021/11/15 07:24:04;;;;;;;21.92;12.02;;;;;;;7.74;83.74;102774.28;5035629;28;20020;-69
2021/11/15 07:26:30;;;;;;;24.23;12.38;;;;;;;7.67;84.13;102754.19;5053496;28;20029;-68
2021/11/15 07:28:55;;;;;;;22.75;11.80;;;;;;;7.74;83.97;102775.13;5053448;28;20017;-69
2021/11/15 07:31:21;;;;;;;22.60;11.88;;;;;;;7.78;83.82;102773.13;5053396;28;20029;-68
2021/11/15 07:33:48;;;;;;;21.02;12.30;;;;;;;7.85;83.23;102775.13;5035568;28;20103;-69
2021/11/15 07:36:13;;;;;;;21.30;11.73;;;;;;;7.88;83.12;102776.59;5053359;28;20101;-68
2021/11/15 07:38:39;;;;;;;23.20;12.85;;;;;;;7.64;82.78;102774.19;5053241;28;20100;-68
2021/11/15 07:41:04;;;;;;;22.83;12.05;;;;;;;7.69;83.63;102775.47;5035351;28;20124;-68
2021/11/15 07:43:29;;;;;;;27.10;12.85;;;;;;;7.66;83.62;102769.75;5034738;28;20029;-68
2021/11/15 07:45:55;;;;;;;24.75;12.77;;;;;;;7.55;84.26;102769.75;5053478;28;20036;-68
2021/11/15 07:48:20;;;;;;;23.52;12.63;;;;;;;7.82;83.82;102766.78;5053194;28;20123;-68
2021/11/15 07:50:47;;;;;;;21.60;11.80;;;;;;;7.74;83.62;102774.28;5035187;28;20379;-68
2021/11/15 07:53:13;;;;;;;23.67;13.27;;;;;;;7.77;83.70;102774.03;5035005;28;20021;-68
2021/11/15 07:55:41;;;;;;;25.75;13.13;;;;;;;7.90;83.33;102779.88;5052769;28;20036;-69
2021/11/15 07:58:08;;;;;;;23.65;13.25;;;;;;;7.92;83.73;102783.16;5034882;28;20033;-68
2021/11/15 08:00:34;;;;;;;21.90;12.45;;;;;;;7.60;83.97;102786.47;5052802;28;20487;-68
2021/11/15 08:02:59;;;;;;;23.63;13.10;;;;;;;7.65;83.97;102779.25;5035023;28;20025;-68
2021/11/15 08:05:25;;;;;;;23.15;12.48;;;;;;;7.62;84.22;102776.06;5035060;28;20035;-68
2021/11/15 08:07:50;;;;;;;25.02;12.50;;;;;;;7.71;84.21;102787.41;5035163;28;20025;-68
2021/11/15 08:10:18;;;;;;;22.88;13.18;;;;;;;7.82;83.74;102790.78;5053068;28;20021;-69
2021/11/15 08:12:54;;;;;;;24.17;12.73;;;;;;;7.81;83.12;102778.84;5034830;28;20404;-68
2021/11/15 08:15:22;;;;;;;24.92;12.25;;;;;;;7.89;82.99;102786.78;5053479;28;20045;-68
2021/11/15 08:17:51;;;;;;;24.15;13.13;;;;;;;7.72;83.75;102789.06;5052929;28;20402;-68
2021/11/15 08:20:22;;;;;;;21.33;12.25;;;;;;;7.63;84.35;102783.69;5035029;28;20051;-69
2021/11/15 08:22:49;;;;;;;23.27;13.15;;;;;;;7.76;85.00;102782.72;5053168;28;20472;-69
2021/11/15 08:25:37;;;;;;;27.10;12.63;;;;;;;7.89;84.00;102786.78;5035016;28;20060;-69
2021/11/15 08:28:03;;;;;;;22.98;12.85;;;;;;;7.79;84.10;102798.72;5035018;28;20040;-68
2021/11/15 08:30:28;;;;;;;26.90;12.50;;;;;;;7.79;83.16;102792.78;5035040;28;20017;-68
2021/11/15 08:32:54;;;;;;;25.85;13.43;;;;;;;7.79;82.54;102803.06;5052776;28;20528;-68
2021/11/15 08:35:22;;;;;;;26.60;13.52;;;;;;;7.65;84.53;102793.84;5052767;28;20037;-68
2021/11/15 08:38:05;;;;;;;27.67;13.07;;;;;;;7.81;83.82;102789.13;5034721;28;20032;-68
2021/11/15 08:40:31;;;;;;;24.02;12.95;;;;;;;7.82;83.65;102771.94;5052763;28;20124;-69
2021/11/15 08:42:56;;;;;;;28.92;13.25;;;;;;;7.87;83.52;102780.13;5034912;28;20526;-68
2021/11/15 08:45:21;;;;;;;21.88;12.05;;;;;;;7.95;83.49;102785.50;5052680;28;20033;-68
2021/11/15 08:47:47;;;;;;;22.60;12.27;;;;;;;7.98;82.50;102779.28;5053010;28;20021;-69
2021/11/15 08:50:12;;;;;;;26.08;13.23;;;;;;;7.96;82.79;102783.72;5052996;28;20028;-68
2021/11/15 08:52:38;;;;;;;23.02;12.27;;;;;;;7.99;82.78;102786.06;5052829;28;20481;-69
2021/11/15 08:55:03;;;;;;;23.50;12.77;;;;;;;7.98;82.92;102794.75;5054309;28;20020;-69
2021/11/15 08:57:29;;;;;;;25.17;13.10;;;;;;;7.77;83.49;102779.19;5056491;28;20158;-68
2021/11/15 08:59:55;;;;;;;28.33;12.90;;;;;;;7.75;83.53;102788.81;5038486;28;20032;-69
2021/11/15 09:02:21;;;;;;;29.85;13.48;;;;;;;7.61;84.40;102795.00;5056477;28;20406;-69
2021/11/15 09:04:47;;;;;;;27.92;13.80;;;;;;;7.79;83.64;102787.63;5056479;28;20111;-69
2021/11/15 09:07:12;;;;;;;24.33;13.57;;;;;;;7.74;84.00;102789.72;5038509;28;20467;-69
2021/11/15 09:09:39;;;;;;;26.85;13.63;;;;;;;7.64;84.17;102784.47;5056307;28;20025;-69
2021/11/15 09:12:08;;;;;;;29.10;14.05;;;;;;;7.68;84.18;102785.88;5038308;28;20052;-69
2021/11/15 09:14:34;;;;;;;28.33;13.88;;;;;;;7.50;84.83;102782.97;5038414;28;20480;-69
2021/11/15 09:17:00;;;;;;;30.85;14.52;;;;;;;7.65;85.09;102780.97;5056189;28;20021;-69
2021/11/15 09:19:25;;;;;;;28.00;13.73;;;;;;;7.71;85.35;102777.94;5056013;28;20047;-67
2021/11/15 09:21:52;;;;;;;26.88;14.25;;;;;;;7.59;84.94;102782.25;5056120;28;20028;-69
2021/11/15 09:24:18;;;;;;;27.90;14.27;;;;;;;7.83;84.71;102783.88;5056019;28;20029;-68
2021/11/15 09:26:45;;;;;;;28.80;14.60;;;;;;;7.92;83.60;102778.00;5055955;28;20083;-70
2021/11/15 09:29:11;;;;;;;27.80;14.38;;;;;;;7.95;83.66;102775.19;5037931;28;20044;-68
2021/11/15 09:31:38;;;;;;;27.58;14.30;;;;;;;8.00;83.85;102769.66;5055850;28;20455;-69
2021/11/15 09:34:03;;;;;;;28.40;13.95;;;;;;;7.67;83.47;102746.47;5037943;28;20472;-69
2021/11/15 09:36:29;;;;;;;26.00;14.07;;;;;;;7.86;83.10;102745.84;5056054;28;20020;-67
2021/11/15 09:38:57;;;;;;;29.55;15.23;;;;;;;7.83;83.40;102758.97;5037997;28;20063;-68
2021/11/15 09:41:23;;;;;;;28.30;13.93;;;;;;;7.93;83.33;102774.50;5055836;28;20028;-68
2021/11/15 09:43:49;;;;;;;28.08;13.82;;;;;;;7.91;82.94;102773.78;5038091;28;20079;-70
2021/11/15 09:46:19;;;;;;;30.35;13.63;;;;;;;7.94;83.41;102777.88;5038067;28;20017;-70
2021/11/15 09:48:49;;;;;;;29.05;13.43;;;;;;;7.97;83.03;102772.50;5038292;28;20025;-69
2021/11/15 09:51:16;;;;;;;28.55;13.32;;;;;;;7.75;83.89;102775.94;5055853;28;20036;-69
2021/11/15 09:53:42;;;;;;;27.80;13.25;;;;;;;7.79;83.76;102772.19;5037962;28;20083;-69
2021/11/15 09:56:11;;;;;;;25.63;12.32;;;;;;;7.54;83.93;102766.38;5037929;28;20017;-69
2021/11/15 09:58:37;;;;;;;30.42;12.43;;;;;;;7.64;84.47;102779.34;5037752;28;20468;-68
2021/11/15 10:01:04;;;;;;;27.35;12.48;;;;;;;7.49;84.70;102773.63;5037978;28;20033;-68
2021/11/15 10:03:30;;;;;;;26.83;12.15;;;;;;;7.60;84.21;102771.03;5055451;28;20028;-68
2021/11/15 10:06:01;;;;;;;25.40;11.70;;;;;;;7.65;83.92;102766.38;5037494;28;20033;-69
2021/11/15 10:08:44;;;;;;;28.55;11.98;;;;;;;7.54;84.42;102760.38;5037980;28;20074;-69
2021/11/15 10:11:34;;;;;;;;;;;;;;;;;;;;;
2021/11/15 10:14:05;;;;;;;30.63;12.18;;;;;;;7.46;84.29;102751.53;5055979;28;20043;-69
2021/11/15 10:16:32;;;;;;;25.73;11.32;;;;;;;7.38;85.19;102748.72;5037843;28;20028;-69
2021/11/15 10:19:14;;;;;;;27.55;11.43;;;;;;;7.36;84.55;102742.03;5037936;28;20021;-68
2021/11/15 10:21:47;;;;;;;30.70;11.65;;;;;;;7.51;84.78;102758.06;5055968;28;20420;-69
2021/11/15 10:24:14;;;;;;;21.88;10.23;;;;;;;7.47;84.84;102771.16;5037545;28;20021;-69
2021/11/15 10:26:56;;;;;;;27.27;11.32;;;;;;;7.34;85.06;102772.22;5037363;28;20031;-69
2021/11/15 10:29:35;;;;;;;23.23;10.65;;;;;;;7.34;85.38;102770.47;5038431;28;20525;-69
2021/11/15 10:32:10;;;;;;;22.42;10.45;;;;;;;7.44;85.13;102779.09;5037341;28;20025;-69
2021/11/15 10:34:54;;;;;;;22.70;10.20;;;;;;;7.30;85.83;102781.09;5037257;28;20450;-69
2021/11/15 10:37:23;;;;;;;26.20;10.75;;;;;;;7.27;85.52;102786.47;5055261;28;20552;-69
2021/11/15 10:39:52;;;;;;;23.70;10.73;;;;;;;6.95;86.38;102782.81;5054844;28;20032;-69
2021/11/15 10:42:27;;;;;;;25.35;10.75;;;;;;;6.93;87.94;102776.97;5036890;28;20031;-69
2021/11/15 10:45:00;;;;;;;26.30;10.82;;;;;;;7.12;87.12;102776.41;5037417;28;20028;-70
2021/11/15 10:47:27;;;;;;;;;;;;;;;7.10;86.82;102757.69;5038034;28;20025;-69
2021/11/15 10:50:19;;;;;;;24.27;10.38;;;;;;;7.03;87.33;102766.00;5037439;28;20011;-67
2021/11/15 10:53:27;;;;;;;25.63;10.02;;;;;;;7.32;86.86;102761.25;5037277;28;20534;-69
2021/11/15 10:56:06;;;;;;;27.75;10.50;;;;;;;7.16;87.98;102756.41;5021569;28;20029;-68
2021/11/15 10:58:43;;;;;;;24.23;11.05;;;;;;;7.43;87.00;102751.75;5054700;28;20052;-69
2021/11/15 11:01:10;;;;;;;28.42;10.93;;;;;;;7.05;87.64;102751.25;5055206;28;20029;-69
2021/11/15 11:03:37;;;;;;;27.67;11.23;;;;;;;7.13;88.09;102748.94;5037337;28;20036;-69
2021/11/15 11:06:06;;;;;;;26.98;11.02;;;;;;;7.21;87.31;102747.44;5054745;28;20025;-69
2021/11/15 11:08:41;;;;;;;23.85;10.85;;;;;;;7.24;86.88;102744.63;5036527;28;20119;-68
2021/11/15 11:11:10;;;;;;;25.48;11.13;;;;;;;7.19;87.31;102746.75;5036404;28;20537;-69
2021/11/15 11:13:56;;;;;;;24.95;11.10;;;;;;;7.20;86.81;102739.84;5036470;28;20099;-68
2021/11/15 11:16:41;;;;;;;25.48;11.07;;;;;;;7.21;87.40;102741.47;5036703;28;20495;-69
2021/11/15 11:27:04;;;;;;;23.65;10.40;;;;;;;7.09;86.79;102737.25;5054791;28;20032;-69
2021/11/15 11:29:39;;;;;;;21.67;9.55;;;;;;;7.12;87.14;102731.88;5036794;28;20036;-69